PWSweather.com
Personal Weather Stations
Station Observations
KMNZUMBR2
Covered Bridge Park, Zumbrota, MN 55992

Covered Bridge ParkZumbrota, MN 55992

Lat: 44.302051, Lon: -92.674974

Elevation: 928

Station Type: Davis Vantage Pro 2 Plus

Latest ConditionsUpdated 10:20:01 PM CST Thursday, Dec 13, 2018
Currently Today's Max Today's Min Today's Average
Temperature 28.3°F-2.1°C 29.9°F-1.2°C 22.9°F-5.1°C 26.4°F-3.1°C
Dew Point 28.3°F-2.1°C 29.8°F-1.2°C 20.9°F-6.2°C 25.5°F-3.6°C
Winds Calm Calm 4.6 mph -7.4 kmh - - 0.5 mph 0.8 kmh
Wind Gusts -- 9.2 mph14.8 kmh - -
Humidity 100% 100% 92% 96%
Pressure 30.20 in1022.7 mb 30.20 in1022.7 mb 29.93 in1013.5 mb -
Hour Temp Dew Point Humidity Winds Wind Gusts Pressure Precip Precip Rate Daily Precip Total
10:20 PM 28.3°F-2.1°C 28.3°F-2.1°C 100% Calm Calm -- 30.20 in1022.7 mb - 0.00 in0.0 mm 0.00 in0.0 mm
10:10 PM 28.3°F-2.1°C 28.3°F-2.1°C 100% Calm Calm -- 30.19 in1022.4 mb - 0.00 in0.0 mm 0.00 in0.0 mm
10:00 PM 28.5°F-1.9°C 28.5°F-1.9°C 100% Calm Calm -- 30.19 in1022.4 mb - 0.00 in0.0 mm 0.00 in0.0 mm
09:50 PM 28.5°F-1.9°C 28.5°F-1.9°C 100% Calm Calm -- 30.19 in1022.4 mb - 0.00 in0.0 mm 0.00 in0.0 mm
09:40 PM 28.5°F-1.9°C 28.5°F-1.9°C 100% Calm Calm 1.2 mph1.9 kmh 30.19 in1022.4 mb - 0.00 in0.0 mm 0.00 in0.0 mm
09:30 PM 28.6°F-1.9°C 28.6°F-1.9°C 100% 4.6 mph NW7.4 kmh NW 8.1 mph13.0 kmh 30.19 in1022.4 mb - 0.00 in0.0 mm 0.00 in0.0 mm
09:20 PM 28.7°F-1.8°C 28.7°F-1.8°C 100% 4.6 mph NW7.4 kmh NW 4.6 mph7.4 kmh 30.18 in1022.0 mb - 0.00 in0.0 mm 0.00 in0.0 mm
09:10 PM 28.7°F-1.8°C 28.7°F-1.8°C 100% 2.3 mph NW3.7 kmh NW 4.6 mph7.4 kmh 30.18 in1022.0 mb - 0.00 in0.0 mm 0.00 in0.0 mm
09:00 PM 28.7°F-1.8°C 28.7°F-1.8°C 100% 3.5 mph NW5.6 kmh NW 4.6 mph7.4 kmh 30.18 in1022.0 mb - 0.00 in0.0 mm 0.00 in0.0 mm
08:50 PM 28.8°F-1.8°C 28.8°F-1.8°C 100% Calm Calm -- 30.18 in1022.0 mb - 0.00 in0.0 mm 0.00 in0.0 mm
08:40 PM 28.8°F-1.8°C 28.8°F-1.8°C 100% Calm Calm 6.9 mph11.1 kmh 30.18 in1022.0 mb - 0.00 in0.0 mm 0.00 in0.0 mm
08:30 PM 28.9°F-1.7°C 28.9°F-1.7°C 100% 4.6 mph NW7.4 kmh NW 8.1 mph13.0 kmh 30.18 in1022.0 mb - 0.00 in0.0 mm 0.00 in0.0 mm
08:20 PM 28.9°F-1.7°C 28.9°F-1.7°C 100% 2.3 mph NW3.7 kmh NW 9.2 mph14.8 kmh 30.18 in1022.0 mb - 0.00 in0.0 mm 0.00 in0.0 mm
08:10 PM 28.9°F-1.7°C 28.9°F-1.7°C 100% Calm Calm 8.1 mph13.0 kmh 30.17 in1021.7 mb - 0.00 in0.0 mm 0.00 in0.0 mm
08:00 PM 28.9°F-1.7°C 28.9°F-1.7°C 100% Calm Calm -- 30.17 in1021.7 mb - 0.00 in0.0 mm 0.00 in0.0 mm
07:50 PM 28.8°F-1.8°C 28.8°F-1.8°C 100% Calm Calm -- 30.17 in1021.7 mb - 0.00 in0.0 mm 0.00 in0.0 mm
07:40 PM 28.8°F-1.8°C 28.8°F-1.8°C 100% Calm Calm -- 30.17 in1021.7 mb - 0.00 in0.0 mm 0.00 in0.0 mm
07:30 PM 28.7°F-1.8°C 28.7°F-1.8°C 100% Calm Calm -- 30.17 in1021.7 mb - 0.00 in0.0 mm 0.00 in0.0 mm
07:20 PM 28.7°F-1.8°C 28.7°F-1.8°C 100% Calm Calm -- 30.17 in1021.7 mb - 0.00 in0.0 mm 0.00 in0.0 mm
07:10 PM 28.7°F-1.8°C 28.7°F-1.8°C 100% Calm Calm -- 30.16 in1021.3 mb - 0.00 in0.0 mm 0.00 in0.0 mm
07:00 PM 28.7°F-1.8°C 28.7°F-1.8°C 100% Calm Calm -- 30.16 in1021.3 mb - 0.00 in0.0 mm 0.00 in0.0 mm
06:50 PM 28.7°F-1.8°C 28.7°F-1.8°C 100% Calm Calm -- 30.16 in1021.3 mb - 0.00 in0.0 mm 0.00 in0.0 mm
06:40 PM 28.8°F-1.8°C 28.8°F-1.8°C 100% Calm Calm -- 30.16 in1021.3 mb - 0.00 in0.0 mm 0.00 in0.0 mm
06:30 PM 28.8°F-1.8°C 28.8°F-1.8°C 100% Calm Calm -- 30.15 in1021.0 mb - 0.00 in0.0 mm 0.00 in0.0 mm
06:20 PM 28.9°F-1.7°C 28.9°F-1.7°C 100% Calm Calm -- 30.14 in1020.7 mb - 0.00 in0.0 mm 0.00 in0.0 mm
06:10 PM 28.9°F-1.7°C 28.9°F-1.7°C 100% Calm Calm -- 30.14 in1020.7 mb - 0.00 in0.0 mm 0.00 in0.0 mm
06:00 PM 28.9°F-1.7°C 26.9°F-2.8°C 92% Calm Calm -- 30.14 in1020.7 mb - 0.00 in0.0 mm 0.00 in0.0 mm
05:50 PM 29.0°F-1.7°C 27.0°F-2.8°C 92% Calm Calm -- 30.14 in1020.7 mb - 0.00 in0.0 mm 0.00 in0.0 mm
05:40 PM 29.0°F-1.7°C 27.0°F-2.8°C 92% Calm Calm -- 30.14 in1020.7 mb - 0.00 in0.0 mm 0.00 in0.0 mm
05:30 PM 29.0°F-1.7°C 27.0°F-2.8°C 92% Calm Calm -- 30.14 in1020.7 mb - 0.00 in0.0 mm 0.00 in0.0 mm
05:20 PM 29.0°F-1.7°C 27.0°F-2.8°C 92% Calm Calm -- 30.14 in1020.7 mb - 0.00 in0.0 mm 0.00 in0.0 mm
05:10 PM 29.1°F-1.6°C 27.0°F-2.8°C 92% Calm Calm -- 30.14 in1020.7 mb - 0.00 in0.0 mm 0.00 in0.0 mm
05:00 PM 29.1°F-1.6°C 27.1°F-2.7°C 92% 4.6 mph NW7.4 kmh NW 4.6 mph7.4 kmh 30.14 in1020.7 mb - 0.00 in0.0 mm 0.00 in0.0 mm
04:50 PM 29.2°F-1.6°C 27.2°F-2.7°C 92% 2.3 mph WNW3.7 kmh WNW 8.1 mph13.0 kmh 30.14 in1020.7 mb - 0.00 in0.0 mm 0.00 in0.0 mm
04:40 PM 29.4°F-1.4°C 27.4°F-2.6°C 92% 2.3 mph NW3.7 kmh NW 6.9 mph11.1 kmh 30.14 in1020.7 mb - 0.00 in0.0 mm 0.00 in0.0 mm
04:30 PM 29.6°F-1.3°C 27.6°F-2.4°C 92% Calm Calm 4.6 mph7.4 kmh 30.13 in1020.3 mb - 0.00 in0.0 mm 0.00 in0.0 mm
04:20 PM 29.7°F-1.3°C 27.7°F-2.4°C 92% Calm Calm 8.1 mph13.0 kmh 30.12 in1020.0 mb - 0.00 in0.0 mm 0.00 in0.0 mm
04:10 PM 29.8°F-1.2°C 27.8°F-2.3°C 92% 2.3 mph WNW3.7 kmh WNW 5.8 mph9.3 kmh 30.12 in1020.0 mb - 0.00 in0.0 mm 0.00 in0.0 mm
04:00 PM 29.9°F-1.2°C 27.9°F-2.3°C 92% Calm Calm -- 30.11 in1019.6 mb - 0.00 in0.0 mm 0.00 in0.0 mm
03:50 PM 29.9°F-1.2°C 27.9°F-2.3°C 92% Calm Calm -- 30.10 in1019.3 mb - 0.00 in0.0 mm 0.00 in0.0 mm
03:40 PM 29.8°F-1.2°C 27.8°F-2.3°C 92% Calm Calm -- 30.10 in1019.3 mb - 0.00 in0.0 mm 0.00 in0.0 mm
03:30 PM 29.7°F-1.3°C 27.7°F-2.4°C 92% Calm Calm -- 30.09 in1019.0 mb - 0.00 in0.0 mm 0.00 in0.0 mm
03:20 PM 29.7°F-1.3°C 27.7°F-2.4°C 92% Calm Calm -- 30.09 in1019.0 mb - 0.00 in0.0 mm 0.00 in0.0 mm
03:10 PM 29.7°F-1.3°C 27.7°F-2.4°C 92% Calm Calm -- 30.09 in1019.0 mb - 0.00 in0.0 mm 0.00 in0.0 mm
03:00 PM 29.7°F-1.3°C 29.7°F-1.3°C 100% Calm Calm -- 30.08 in1018.6 mb - 0.00 in0.0 mm 0.00 in0.0 mm
02:50 PM 29.7°F-1.3°C 29.7°F-1.3°C 100% Calm Calm -- 30.08 in1018.6 mb - 0.00 in0.0 mm 0.00 in0.0 mm
02:40 PM 29.7°F-1.3°C 29.7°F-1.3°C 100% Calm Calm -- 30.07 in1018.3 mb - 0.00 in0.0 mm 0.00 in0.0 mm
02:30 PM 29.5°F-1.4°C 29.5°F-1.4°C 100% Calm Calm -- 30.08 in1018.6 mb - 0.00 in0.0 mm 0.00 in0.0 mm
02:20 PM 29.4°F-1.4°C 29.4°F-1.4°C 100% 3.5 mph NW5.6 kmh NW 3.5 mph5.6 kmh 30.07 in1018.3 mb - 0.00 in0.0 mm 0.00 in0.0 mm
02:10 PM 29.6°F-1.3°C 29.6°F-1.3°C 100% Calm Calm 3.5 mph5.6 kmh 30.07 in1018.3 mb - 0.00 in0.0 mm 0.00 in0.0 mm
02:00 PM 29.7°F-1.3°C 29.7°F-1.3°C 100% Calm Calm -- 30.07 in1018.3 mb - 0.00 in0.0 mm 0.00 in0.0 mm
01:50 PM 29.8°F-1.2°C 29.8°F-1.2°C 100% Calm Calm -- 30.07 in1018.3 mb - 0.00 in0.0 mm 0.00 in0.0 mm
01:40 PM 29.5°F-1.4°C 29.5°F-1.4°C 100% Calm Calm -- 30.07 in1018.3 mb - 0.00 in0.0 mm 0.00 in0.0 mm
01:30 PM 29.4°F-1.4°C 29.4°F-1.4°C 100% Calm Calm -- 30.06 in1017.9 mb - 0.00 in0.0 mm 0.00 in0.0 mm
01:20 PM 29.0°F-1.7°C 29.0°F-1.7°C 100% Calm Calm -- 30.06 in1017.9 mb - 0.00 in0.0 mm 0.00 in0.0 mm
01:10 PM 29.0°F-1.7°C 29.0°F-1.7°C 100% Calm Calm -- 30.06 in1017.9 mb - 0.00 in0.0 mm 0.00 in0.0 mm
01:00 PM 28.7°F-1.8°C 28.7°F-1.8°C 100% Calm Calm -- 30.06 in1017.9 mb - 0.00 in0.0 mm 0.00 in0.0 mm
12:50 PM 28.5°F-1.9°C 28.5°F-1.9°C 100% Calm Calm -- 30.05 in1017.6 mb - 0.00 in0.0 mm 0.00 in0.0 mm
12:40 PM 28.5°F-1.9°C 28.5°F-1.9°C 100% Calm Calm -- 30.05 in1017.6 mb - 0.00 in0.0 mm 0.00 in0.0 mm
12:30 PM 28.3°F-2.1°C 28.3°F-2.1°C 100% Calm Calm -- 30.05 in1017.6 mb - 0.00 in0.0 mm 0.00 in0.0 mm
12:20 PM 28.3°F-2.1°C 28.3°F-2.1°C 100% Calm Calm -- 30.05 in1017.6 mb - 0.00 in0.0 mm 0.00 in0.0 mm
12:10 PM 28.3°F-2.1°C 28.3°F-2.1°C 100% Calm Calm -- 30.06 in1017.9 mb - 0.00 in0.0 mm 0.00 in0.0 mm
12:00 PM 28.3°F-2.1°C 28.3°F-2.1°C 100% Calm Calm -- 30.06 in1017.9 mb - 0.00 in0.0 mm 0.00 in0.0 mm
11:50 AM 28.3°F-2.1°C 28.3°F-2.1°C 100% Calm Calm -- 30.05 in1017.6 mb - 0.00 in0.0 mm 0.00 in0.0 mm
11:40 AM 28.2°F-2.1°C 28.2°F-2.1°C 100% Calm Calm -- 30.05 in1017.6 mb - 0.00 in0.0 mm 0.00 in0.0 mm
11:30 AM 28.1°F-2.2°C 28.1°F-2.2°C 100% Calm Calm -- 30.06 in1017.9 mb - 0.00 in0.0 mm 0.00 in0.0 mm
11:20 AM 28.0°F-2.2°C 28.0°F-2.2°C 100% 3.5 mph NW5.6 kmh NW 5.8 mph9.3 kmh 30.06 in1017.9 mb - 0.00 in0.0 mm 0.00 in0.0 mm
11:10 AM 27.9°F-2.3°C 27.9°F-2.3°C 100% Calm Calm -- 30.06 in1017.9 mb - 0.00 in0.0 mm 0.00 in0.0 mm
11:00 AM 27.9°F-2.3°C 25.9°F-3.4°C 92% Calm Calm -- 30.06 in1017.9 mb - 0.00 in0.0 mm 0.00 in0.0 mm
10:50 AM 27.9°F-2.3°C 25.9°F-3.4°C 92% Calm Calm -- 30.06 in1017.9 mb - 0.00 in0.0 mm 0.00 in0.0 mm
10:40 AM 27.5°F-2.5°C 25.5°F-3.6°C 92% Calm Calm -- 30.06 in1017.9 mb - 0.00 in0.0 mm 0.00 in0.0 mm
10:30 AM 27.1°F-2.7°C 25.1°F-3.8°C 92% Calm Calm -- 30.06 in1017.9 mb - 0.00 in0.0 mm 0.00 in0.0 mm
10:20 AM 26.8°F-2.9°C 24.8°F-4.0°C 92% Calm Calm -- 30.05 in1017.6 mb - 0.00 in0.0 mm 0.00 in0.0 mm
10:10 AM 26.7°F-2.9°C 24.7°F-4.1°C 92% Calm Calm -- 30.06 in1017.9 mb - 0.00 in0.0 mm 0.00 in0.0 mm
10:00 AM 26.5°F-3.1°C 24.5°F-4.2°C 92% Calm Calm -- 30.05 in1017.6 mb - 0.00 in0.0 mm 0.00 in0.0 mm
09:50 AM 26.2°F-3.2°C 24.2°F-4.3°C 92% Calm Calm -- 30.04 in1017.3 mb - 0.00 in0.0 mm 0.00 in0.0 mm
09:40 AM 26.0°F-3.3°C 24.0°F-4.4°C 92% Calm Calm -- 30.04 in1017.3 mb - 0.00 in0.0 mm 0.00 in0.0 mm
09:30 AM 25.8°F-3.4°C 23.8°F-4.6°C 92% Calm Calm 3.5 mph5.6 kmh 30.03 in1016.9 mb - 0.00 in0.0 mm 0.00 in0.0 mm
09:20 AM 25.6°F-3.6°C 23.6°F-4.7°C 92% Calm Calm -- 30.04 in1017.3 mb - 0.00 in0.0 mm 0.00 in0.0 mm
09:10 AM 25.3°F-3.7°C 23.3°F-4.8°C 92% Calm Calm -- 30.03 in1016.9 mb - 0.00 in0.0 mm 0.00 in0.0 mm
09:00 AM 25.1°F-3.8°C 25.1°F-3.8°C 100% Calm Calm -- 30.02 in1016.6 mb - 0.00 in0.0 mm 0.00 in0.0 mm
08:50 AM 24.8°F-4.0°C 24.8°F-4.0°C 100% Calm Calm -- 30.02 in1016.6 mb - 0.00 in0.0 mm 0.00 in0.0 mm
08:40 AM 24.3°F-4.3°C 24.3°F-4.3°C 100% Calm Calm -- 30.02 in1016.6 mb - 0.00 in0.0 mm 0.00 in0.0 mm
08:30 AM 24.1°F-4.4°C 24.1°F-4.4°C 100% Calm Calm -- 30.01 in1016.3 mb - 0.00 in0.0 mm 0.00 in0.0 mm
08:20 AM 23.9°F-4.5°C 23.9°F-4.5°C 100% Calm Calm -- 30.00 in1015.9 mb - 0.00 in0.0 mm 0.00 in0.0 mm
08:10 AM 23.8°F-4.6°C 23.8°F-4.6°C 100% Calm Calm -- 30.00 in1015.9 mb - 0.00 in0.0 mm 0.00 in0.0 mm
08:00 AM 23.7°F-4.6°C 23.7°F-4.6°C 100% Calm Calm -- 29.99 in1015.6 mb - 0.00 in0.0 mm 0.00 in0.0 mm
07:50 AM 23.6°F-4.7°C 23.6°F-4.7°C 100% Calm Calm -- 29.99 in1015.6 mb - 0.00 in0.0 mm 0.00 in0.0 mm
07:40 AM 23.6°F-4.7°C 23.6°F-4.7°C 100% Calm Calm -- 29.99 in1015.6 mb - 0.00 in0.0 mm 0.00 in0.0 mm
07:30 AM 23.5°F-4.7°C 23.5°F-4.7°C 100% Calm Calm -- 29.99 in1015.6 mb - 0.00 in0.0 mm 0.00 in0.0 mm
07:20 AM 23.4°F-4.8°C 23.4°F-4.8°C 100% Calm Calm -- 30.00 in1015.9 mb - 0.00 in0.0 mm 0.00 in0.0 mm
07:10 AM 23.4°F-4.8°C 23.4°F-4.8°C 100% Calm Calm -- 29.99 in1015.6 mb - 0.00 in0.0 mm 0.00 in0.0 mm
07:00 AM 23.3°F-4.8°C 21.3°F-5.9°C 92% Calm Calm -- 29.99 in1015.6 mb - 0.00 in0.0 mm 0.00 in0.0 mm
06:50 AM 23.2°F-4.9°C 21.2°F-6.0°C 92% Calm Calm -- 29.99 in1015.6 mb - 0.00 in0.0 mm 0.00 in0.0 mm
06:40 AM 23.1°F-4.9°C 21.1°F-6.1°C 92% Calm Calm -- 29.98 in1015.2 mb - 0.00 in0.0 mm 0.00 in0.0 mm
06:30 AM 23.0°F-5.0°C 21.0°F-6.1°C 92% Calm Calm -- 29.98 in1015.2 mb - 0.00 in0.0 mm 0.00 in0.0 mm
06:20 AM 23.0°F-5.0°C 21.0°F-6.1°C 92% Calm Calm -- 29.97 in1014.9 mb - 0.00 in0.0 mm 0.00 in0.0 mm
06:10 AM 23.0°F-5.0°C 21.0°F-6.1°C 92% Calm Calm -- 29.97 in1014.9 mb - 0.00 in0.0 mm 0.00 in0.0 mm
06:00 AM 23.0°F-5.0°C 21.0°F-6.1°C 92% Calm Calm -- 29.97 in1014.9 mb - 0.00 in0.0 mm 0.00 in0.0 mm
05:50 AM 23.0°F-5.0°C 21.0°F-6.1°C 92% 2.3 mph S3.7 kmh S 3.5 mph5.6 kmh 29.97 in1014.9 mb - 0.00 in0.0 mm 0.00 in0.0 mm
05:40 AM 23.0°F-5.0°C 21.0°F-6.1°C 92% 2.3 mph SSE3.7 kmh SSE 3.5 mph5.6 kmh 29.96 in1014.6 mb - 0.00 in0.0 mm 0.00 in0.0 mm
05:30 AM 22.9°F-5.1°C 20.9°F-6.2°C 92% 1.2 mph ESE1.9 kmh ESE 3.5 mph5.6 kmh 29.96 in1014.6 mb - 0.00 in0.0 mm 0.00 in0.0 mm
05:20 AM 23.0°F-5.0°C 21.0°F-6.1°C 92% 1.2 mph SE1.9 kmh SE 3.5 mph5.6 kmh 29.95 in1014.2 mb - 0.00 in0.0 mm 0.00 in0.0 mm
05:10 AM 23.0°F-5.0°C 21.0°F-6.1°C 92% Calm Calm -- 29.95 in1014.2 mb - 0.00 in0.0 mm 0.00 in0.0 mm
05:00 AM 23.0°F-5.0°C 21.0°F-6.1°C 92% Calm Calm -- 29.95 in1014.2 mb - 0.00 in0.0 mm 0.00 in0.0 mm
04:50 AM 22.9°F-5.1°C 20.9°F-6.2°C 92% Calm Calm -- 29.95 in1014.2 mb - 0.00 in0.0 mm 0.00 in0.0 mm
04:40 AM 23.0°F-5.0°C 21.0°F-6.1°C 92% Calm Calm -- 29.96 in1014.6 mb - 0.00 in0.0 mm 0.00 in0.0 mm
04:30 AM 23.0°F-5.0°C 21.0°F-6.1°C 92% 2.3 mph SE3.7 kmh SE 4.6 mph7.4 kmh 29.95 in1014.2 mb - 0.00 in0.0 mm 0.00 in0.0 mm
04:20 AM 23.1°F-4.9°C 21.1°F-6.1°C 92% Calm Calm -- 29.95 in1014.2 mb - 0.00 in0.0 mm 0.00 in0.0 mm
04:10 AM 23.0°F-5.0°C 21.0°F-6.1°C 92% Calm Calm -- 29.95 in1014.2 mb - 0.00 in0.0 mm 0.00 in0.0 mm
04:00 AM 23.0°F-5.0°C 23.0°F-5.0°C 100% Calm Calm -- 29.95 in1014.2 mb - 0.00 in0.0 mm 0.00 in0.0 mm
03:50 AM 23.0°F-5.0°C 23.0°F-5.0°C 100% Calm Calm -- 29.95 in1014.2 mb - 0.00 in0.0 mm 0.00 in0.0 mm
03:40 AM 23.0°F-5.0°C 23.0°F-5.0°C 100% 2.3 mph SE3.7 kmh SE 3.5 mph5.6 kmh 29.95 in1014.2 mb - 0.00 in0.0 mm 0.00 in0.0 mm
03:30 AM 22.9°F-5.1°C 22.9°F-5.1°C 100% Calm Calm 3.5 mph5.6 kmh 29.95 in1014.2 mb - 0.00 in0.0 mm 0.00 in0.0 mm
03:20 AM 22.9°F-5.1°C 22.9°F-5.1°C 100% 1.2 mph SSE1.9 kmh SSE 3.5 mph5.6 kmh 29.94 in1013.9 mb - 0.00 in0.0 mm 0.00 in0.0 mm
03:10 AM 22.9°F-5.1°C 22.9°F-5.1°C 100% 3.5 mph SSE5.6 kmh SSE 4.6 mph7.4 kmh 29.94 in1013.9 mb - 0.00 in0.0 mm 0.00 in0.0 mm
03:00 AM 23.0°F-5.0°C 21.0°F-6.1°C 92% Calm Calm 5.8 mph9.3 kmh 29.94 in1013.9 mb - 0.00 in0.0 mm 0.00 in0.0 mm
02:50 AM 23.0°F-5.0°C 21.0°F-6.1°C 92% Calm Calm -- 29.94 in1013.9 mb - 0.00 in0.0 mm 0.00 in0.0 mm
02:40 AM 23.0°F-5.0°C 21.0°F-6.1°C 92% Calm Calm -- 29.95 in1014.2 mb - 0.00 in0.0 mm 0.00 in0.0 mm
02:30 AM 23.0°F-5.0°C 21.0°F-6.1°C 92% Calm Calm -- 29.94 in1013.9 mb - 0.00 in0.0 mm 0.00 in0.0 mm
02:20 AM 23.1°F-4.9°C 21.1°F-6.1°C 92% 3.5 mph SE5.6 kmh SE 8.1 mph13.0 kmh 29.95 in1014.2 mb - 0.00 in0.0 mm 0.00 in0.0 mm
02:10 AM 23.1°F-4.9°C 21.1°F-6.1°C 92% 2.3 mph SE3.7 kmh SE 3.5 mph5.6 kmh 29.94 in1013.9 mb - 0.00 in0.0 mm 0.00 in0.0 mm
02:00 AM 23.2°F-4.9°C 21.2°F-6.0°C 92% Calm Calm 4.6 mph7.4 kmh 29.94 in1013.9 mb - 0.00 in0.0 mm 0.00 in0.0 mm
01:50 AM 23.3°F-4.8°C 21.3°F-5.9°C 92% Calm Calm -- 29.94 in1013.9 mb - 0.00 in0.0 mm 0.00 in0.0 mm
01:40 AM 23.3°F-4.8°C 21.3°F-5.9°C 92% Calm Calm -- 29.93 in1013.5 mb - 0.00 in0.0 mm 0.00 in0.0 mm
01:30 AM 23.3°F-4.8°C 21.3°F-5.9°C 92% Calm Calm -- 29.93 in1013.5 mb - 0.00 in0.0 mm 0.00 in0.0 mm
01:20 AM 23.3°F-4.8°C 21.3°F-5.9°C 92% Calm Calm -- 29.93 in1013.5 mb - 0.00 in0.0 mm 0.00 in0.0 mm
01:10 AM 23.4°F-4.8°C 21.4°F-5.9°C 92% Calm Calm -- 29.93 in1013.5 mb - 0.00 in0.0 mm 0.00 in0.0 mm
01:00 AM 23.4°F-4.8°C 21.4°F-5.9°C 92% Calm Calm -- 29.93 in1013.5 mb - 0.00 in0.0 mm 0.00 in0.0 mm
12:50 AM 23.4°F-4.8°C 21.4°F-5.9°C 92% Calm Calm -- 29.93 in1013.5 mb - 0.00 in0.0 mm 0.00 in0.0 mm
12:40 AM 23.4°F-4.8°C 21.4°F-5.9°C 92% Calm Calm -- 29.93 in1013.5 mb - 0.00 in0.0 mm 0.00 in0.0 mm
12:30 AM 23.5°F-4.7°C 21.5°F-5.8°C 92% Calm Calm -- 29.93 in1013.5 mb - 0.00 in0.0 mm 0.00 in0.0 mm
12:20 AM 23.5°F-4.7°C 21.5°F-5.8°C 92% Calm Calm -- 29.93 in1013.5 mb - 0.00 in0.0 mm 0.00 in0.0 mm
12:10 AM 23.6°F-4.7°C 21.6°F-5.8°C 92% Calm Calm -- 29.93 in1013.5 mb - 0.00 in0.0 mm 0.00 in0.0 mm
12:00 AM 23.6°F-4.7°C 21.6°F-5.8°C 92% Calm Calm -- 29.93 in1013.5 mb - 0.00 in0.0 mm 0.00 in0.0 mm